Time;durP1;ratioP1;P1;durP2;ratioP2;P2;SDS_P1;SDS_P2;PMS_P1;PMS_P2;Temp;Humidity;BMP_temperature;BMP_pressure;BME280_temperature;BME280_humidity;BME280_pressure;Samples;Min_cycle;Max_cycle;Signal;HPM_P1;HPM_P2
2022/08/13 00:01:33;;;;;;;9.98;5.50;;;;;;;13.30;100.00;95525.00;5060861;28;20036;-76
2022/08/13 00:04:00;;;;;;;12.00;5.03;;;;;;;13.21;100.00;95526.72;5056533;28;20045;-75
2022/08/13 00:07:02;;;;;;;14.68;5.47;;;;;;;13.33;100.00;95530.53;5057994;28;20037;-76
2022/08/13 00:09:14;;;;;;;9.25;5.40;;;;;;;13.16;100.00;95535.53;5055627;28;20399;-75
2022/08/13 00:14:31;;;;;;;11.48;5.78;;;;;;;13.21;100.00;95532.00;5052112;28;20048;-75
2022/08/13 00:16:57;;;;;;;11.70;6.28;;;;;;;13.22;100.00;95529.09;5054936;28;20047;-75
2022/08/13 00:19:26;;;;;;;10.32;5.50;;;;;;;13.07;100.00;95529.28;5051786;28;20443;-75
2022/08/13 00:21:57;;;;;;;16.23;6.10;;;;;;;13.04;100.00;95527.22;5053282;28;20036;-75
2022/08/13 00:24:22;;;;;;;12.30;5.95;;;;;;;13.07;100.00;95526.63;5051240;28;20056;-75
2022/08/13 00:26:48;;;;;;;10.85;6.10;;;;;;;12.87;100.00;95528.47;5049447;28;20037;-74
2022/08/13 00:29:14;;;;;;;10.02;6.10;;;;;;;12.72;100.00;95531.31;5054538;28;20052;-75
2022/08/13 00:31:41;;;;;;;11.38;5.90;;;;;;;12.84;100.00;95529.03;5064718;28;20041;-75
2022/08/13 00:34:07;;;;;;;10.75;6.07;;;;;;;12.83;100.00;95532.75;5056921;28;20463;-75
2022/08/13 00:36:35;;;;;;;10.93;5.63;;;;;;;12.79;100.00;95537.03;5050144;28;20120;-75
2022/08/13 00:39:05;;;;;;;11.50;6.78;;;;;;;12.79;100.00;95537.03;5053730;28;20112;-75
2022/08/13 00:41:37;;;;;;;12.57;6.43;;;;;;;12.73;100.00;95532.84;5052396;28;20041;-75
2022/08/13 00:44:06;;;;;;;10.57;5.90;;;;;;;12.72;100.00;95537.38;5059267;28;20093;-75
2022/08/13 00:46:33;;;;;;;10.90;6.03;;;;;;;12.60;100.00;95539.63;5053522;28;20124;-75
2022/08/13 00:49:03;;;;;;;12.57;6.28;;;;;;;12.60;100.00;95529.84;5051400;28;20037;-75
2022/08/13 00:51:31;;;;;;;11.50;5.78;;;;;;;12.59;100.00;95532.75;5050630;28;20510;-75
2022/08/13 00:53:58;;;;;;;11.73;6.00;;;;;;;12.51;100.00;95525.47;5052212;28;20423;-75
2022/08/13 00:56:25;;;;;;;10.25;5.47;;;;;;;12.48;100.00;95524.97;5056100;28;20067;-75
2022/08/13 00:58:52;;;;;;;11.07;5.88;;;;;;;12.33;100.00;95513.78;5049810;28;20041;-75
2022/08/13 01:01:24;;;;;;;8.75;5.70;;;;;;;12.36;100.00;95523.78;5049960;28;20060;-75
2022/08/13 01:03:50;;;;;;;11.02;5.95;;;;;;;12.29;100.00;95519.59;5051563;28;20517;-75
2022/08/13 01:06:16;;;;;;;12.98;6.15;;;;;;;12.31;100.00;95516.69;5049497;28;20506;-75
2022/08/13 01:08:42;;;;;;;16.63;6.70;;;;;;;12.26;100.00;95514.88;5056925;28;20777;-75
2022/08/13 01:11:11;;;;;;;9.77;5.75;;;;;;;12.17;100.00;95521.84;5044458;28;20116;-75
2022/08/13 01:13:40;;;;;;;8.30;5.68;;;;;;;12.13;100.00;95515.56;5055911;28;20339;-75
2022/08/13 01:16:13;;;;;;;14.45;5.80;;;;;;;12.18;100.00;95507.56;5058884;28;20044;-75
2022/08/13 01:18:42;;;;;;;9.85;5.93;;;;;;;12.17;100.00;95511.28;5063664;28;20040;-75
2022/08/13 01:21:15;;;;;;;9.90;5.80;;;;;;;12.12;100.00;95513.97;5050631;28;20048;-75
2022/08/13 01:23:45;;;;;;;12.85;5.93;;;;;;;12.03;100.00;95516.44;5052776;28;20032;-76
2022/08/13 01:26:16;;;;;;;8.80;5.85;;;;;;;12.02;100.00;95520.13;5057460;28;20504;-75
2022/08/13 01:28:43;;;;;;;13.02;6.22;;;;;;;12.00;100.00;95516.22;5052155;28;20394;-75
2022/08/13 01:31:11;;;;;;;9.13;6.18;;;;;;;11.99;100.00;95519.91;5054118;28;20451;-75
2022/08/13 01:33:38;;;;;;;9.68;5.85;;;;;;;11.88;100.00;95519.97;5052072;28;20044;-75
2022/08/13 01:36:06;;;;;;;13.45;6.65;;;;;;;11.90;100.00;95515.19;5047239;28;20045;-75
2022/08/13 01:38:33;;;;;;;15.23;6.35;;;;;;;11.87;100.00;95520.25;5061520;28;20086;-75
2022/08/13 01:40:59;;;;;;;13.25;6.22;;;;;;;11.71;100.00;95514.28;5058573;28;20066;-76
2022/08/13 01:43:30;;;;;;;14.48;6.65;;;;;;;11.66;100.00;95506.44;5057169;28;20082;-76
2022/08/13 01:46:00;;;;;;;11.90;6.70;;;;;;;11.73;100.00;95506.91;5053844;28;20064;-75
2022/08/13 01:51:21;;;;;;;10.45;6.10;;;;;;;11.78;100.00;95506.88;5042842;28;20067;-75
2022/08/13 01:53:53;;;;;;;17.40;7.03;;;;;;;11.74;100.00;95501.34;5056182;28;20052;-76
2022/08/13 01:56:23;;;;;;;13.68;7.15;;;;;;;11.67;100.00;95502.75;5051028;28;20112;-75
2022/08/13 01:58:51;;;;;;;16.33;6.78;;;;;;;11.65;100.00;95504.84;5058010;28;20062;-76
2022/08/13 02:01:17;;;;;;;16.15;6.75;;;;;;;11.63;100.00;95507.00;5053278;28;20036;-76
2022/08/13 02:03:46;;;;;;;11.32;7.35;;;;;;;11.52;100.00;95507.06;5057767;28;20480;-75
2022/08/13 02:06:12;;;;;;;10.70;6.55;;;;;;;11.58;100.00;95500.69;5051468;28;20041;-76
2022/08/13 02:08:40;;;;;;;17.75;7.30;;;;;;;11.53;100.00;95508.63;5060503;28;20406;-75
2022/08/13 02:11:06;;;;;;;10.20;6.22;;;;;;;11.56;100.00;95508.06;5051005;28;20060;-75
2022/08/13 02:13:32;;;;;;;10.80;6.72;;;;;;;11.63;100.00;95507.00;5047477;28;20051;-76
2022/08/13 02:15:58;;;;;;;11.32;6.82;;;;;;;11.54;100.00;95509.44;5051963;28;20036;-76
2022/08/13 02:18:26;;;;;;;10.85;7.03;;;;;;;11.24;100.00;95506.72;5052823;28;20594;-76
2022/08/13 02:20:54;;;;;;;12.70;7.40;;;;;;;11.38;100.00;95501.63;5046594;28;20040;-76
2022/08/13 02:23:25;;;;;;;10.52;6.43;;;;;;;11.42;100.00;95501.84;5044821;28;20045;-75
2022/08/13 02:25:51;;;;;;;13.13;6.68;;;;;;;11.45;100.00;95501.31;5051897;28;20041;-75
2022/08/13 02:28:19;;;;;;;15.00;7.03;;;;;;;11.40;100.00;95503.97;5054341;28;20052;-76
2022/08/13 02:30:46;;;;;;;12.13;6.60;;;;;;;11.40;100.00;95496.84;5053984;28;20067;-76
2022/08/13 02:33:11;;;;;;;10.27;6.78;;;;;;;11.26;100.00;95504.59;5057174;28;20044;-75
2022/08/13 02:35:37;;;;;;;15.27;7.30;;;;;;;11.27;100.00;95497.47;5046874;28;20067;-76
2022/08/13 02:38:04;;;;;;;9.90;6.45;;;;;;;11.22;100.00;95487.78;5051063;28;20495;-76
2022/08/13 02:43:14;;;;;;;15.32;7.28;;;;;;;11.26;100.00;95507.25;5052217;28;20040;-75
2022/08/13 02:45:39;;;;;;;12.65;6.47;;;;;;;11.16;100.00;95509.94;5051351;28;20098;-75
2022/08/13 02:48:05;;;;;;;16.40;7.03;;;;;;;11.16;100.00;95504.69;5049503;28;20041;-75
2022/08/13 02:50:32;;;;;;;12.43;6.63;;;;;;;11.11;100.00;95509.97;5050549;28;20060;-75
2022/08/13 02:52:57;;;;;;;12.95;7.13;;;;;;;11.19;100.00;95504.13;5055538;28;20067;-75
2022/08/13 02:55:24;;;;;;;14.50;6.25;;;;;;;11.14;100.00;95501.50;5050986;28;20469;-75
2022/08/13 02:57:51;;;;;;;13.13;6.80;;;;;;;11.05;100.00;95503.16;5055355;28;20037;-75
2022/08/13 03:00:19;;;;;;;11.02;6.75;;;;;;;10.98;100.00;95507.94;5049742;28;20498;-75
2022/08/13 03:02:45;;;;;;;13.52;6.90;;;;;;;10.91;100.00;95498.47;5049418;28;20463;-75
2022/08/13 03:05:17;;;;;;;11.13;7.00;;;;;;;10.92;100.00;95505.31;5061868;28;20037;-75
2022/08/13 03:07:46;;;;;;;11.30;6.85;;;;;;;10.86;100.00;95505.59;5049258;28;20080;-75
2022/08/13 03:10:35;;;;;;;11.70;6.95;;;;;;;10.73;100.00;95506.97;5050195;28;20037;-75
2022/08/13 03:13:07;;;;;;;13.02;7.93;;;;;;;10.64;100.00;95503.34;5049101;28;20071;-75
2022/08/13 03:15:34;;;;;;;13.05;7.00;;;;;;;10.67;100.00;95497.53;5058457;28;20074;-75
2022/08/13 03:18:00;;;;;;;13.27;7.45;;;;;;;10.74;100.00;95498.03;5059202;28;20124;-76
2022/08/13 03:20:25;;;;;;;9.65;6.57;;;;;;;10.52;100.00;95496.53;5048570;28;20125;-76
2022/08/13 03:22:52;;;;;;;14.82;6.75;;;;;;;10.50;100.00;95493.41;5052861;28;20399;-76
2022/08/13 03:25:20;;;;;;;13.07;6.88;;;;;;;10.63;100.00;95496.50;5056726;28;20116;-75
2022/08/13 03:27:46;;;;;;;15.25;6.90;;;;;;;10.67;100.00;95502.78;5047848;28;20094;-76
2022/08/13 03:30:14;;;;;;;15.00;6.95;;;;;;;10.62;100.00;95500.19;5056914;28;20045;-75
2022/08/13 03:32:41;;;;;;;15.32;7.70;;;;;;;10.49;100.00;95502.34;5053642;28;20064;-75
2022/08/13 03:35:12;;;;;;;16.33;8.18;;;;;;;10.50;100.00;95509.19;5054680;28;20045;-75
2022/08/13 03:37:40;;;;;;;11.70;6.55;;;;;;;10.40;100.00;95511.81;5046480;28;20041;-75
2022/08/13 03:40:06;;;;;;;13.45;7.00;;;;;;;10.38;100.00;95511.31;5059859;28;20045;-76
2022/08/13 03:42:32;;;;;;;12.60;6.80;;;;;;;10.35;100.00;95506.59;5044241;28;20530;-76
2022/08/13 03:44:57;;;;;;;11.02;6.82;;;;;;;10.38;100.00;95506.06;5061893;28;20051;-76
2022/08/13 03:47:23;;;;;;;12.77;7.43;;;;;;;10.37;100.00;95505.28;5058905;28;20037;-75
2022/08/13 03:49:49;;;;;;;11.60;6.95;;;;;;;10.35;100.00;95506.59;5059985;28;20566;-75
2022/08/13 03:52:15;;;;;;;12.48;7.28;;;;;;;10.36;100.00;95508.19;5055452;28;20045;-75
2022/08/13 03:54:40;;;;;;;13.13;7.38;;;;;;;10.33;100.00;95508.66;5047102;28;20733;-76
2022/08/13 03:57:07;;;;;;;13.57;7.32;;;;;;;10.31;100.00;95505.53;5053107;28;20109;-76
2022/08/13 03:59:33;;;;;;;17.25;7.32;;;;;;;10.26;100.00;95503.69;5050195;28;20044;-76
2022/08/13 04:02:01;;;;;;;15.98;7.18;;;;;;;10.30;100.00;95503.94;5046429;28;20041;-76
2022/08/13 04:04:27;;;;;;;14.52;7.10;;;;;;;10.27;100.00;95509.72;5057152;28;20037;-76
2022/08/13 04:06:54;;;;;;;13.70;7.97;;;;;;;10.03;100.00;95505.84;5060256;28;20406;-75
2022/08/13 04:09:19;;;;;;;14.02;7.53;;;;;;;9.84;100.00;95504.78;5051758;28;20067;-75
2022/08/13 04:11:46;;;;;;;11.23;7.13;;;;;;;10.05;100.00;95508.19;5047744;28;20079;-75
2022/08/13 04:14:12;;;;;;;13.43;6.72;;;;;;;10.03;100.00;95511.09;5044306;28;20391;-75
2022/08/13 04:16:40;;;;;;;12.20;7.07;;;;;;;10.11;100.00;95501.88;5047976;28;20178;-75
2022/08/13 04:19:06;;;;;;;12.93;7.07;;;;;;;10.11;100.00;95499.25;5055131;28;20146;-75
2022/08/13 04:21:33;;;;;;;16.48;7.38;;;;;;;10.16;100.00;95504.50;5046486;28;20059;-75
2022/08/13 04:24:04;;;;;;;15.73;7.75;;;;;;;10.16;100.00;95509.75;5041554;28;20107;-75
2022/08/13 04:26:31;;;;;;;14.07;7.53;;;;;;;10.15;100.00;95507.41;5050456;28;20037;-75
2022/08/13 04:29:04;;;;;;;14.65;6.97;;;;;;;10.13;100.00;95505.03;5059515;28;20382;-75
2022/08/13 04:31:30;;;;;;;13.95;7.57;;;;;;;10.02;100.00;95501.63;5055227;28;20102;-75
2022/08/13 04:33:55;;;;;;;11.95;6.88;;;;;;;9.99;100.00;95504.00;5056963;28;20402;-75
2022/08/13 04:36:21;;;;;;;12.20;7.30;;;;;;;10.06;100.00;95499.25;5061473;28;20040;-75
2022/08/13 04:38:46;;;;;;;15.57;7.60;;;;;;;10.14;100.00;95501.38;5045137;28;20313;-75
2022/08/13 04:41:12;;;;;;;14.68;8.50;;;;;;;10.14;100.00;95504.00;5057296;28;20048;-75
2022/08/13 04:43:38;;;;;;;18.40;8.20;;;;;;;10.22;100.00;95502.66;5056130;28;20068;-75
2022/08/13 04:46:03;;;;;;;13.27;7.90;;;;;;;10.25;100.00;95490.81;5065024;28;20040;-75
2022/08/13 04:48:32;;;;;;;12.32;7.35;;;;;;;10.37;100.00;95499.22;5056409;28;20109;-75
2022/08/13 04:50:58;;;;;;;16.10;7.80;;;;;;;10.41;100.00;95495.00;5049890;28;20048;-75
2022/08/13 04:53:23;;;;;;;15.05;7.75;;;;;;;10.60;100.00;95507.56;5053600;28;20112;-75
2022/08/13 04:55:49;;;;;;;14.00;7.68;;;;;;;10.70;100.00;95497.00;5055727;28;20033;-75
2022/08/13 04:58:15;;;;;;;13.60;7.60;;;;;;;10.77;100.00;95496.72;5051851;28;20041;-75
2022/08/13 05:00:41;;;;;;;13.45;7.13;;;;;;;10.85;100.00;95499.56;5053948;28;20041;-75
2022/08/13 05:03:24;;;;;;;13.20;7.53;;;;;;;10.96;100.00;95491.59;5044540;28;20044;-75
2022/08/13 05:05:52;;;;;;;13.25;7.65;;;;;;;11.09;100.00;95483.09;5061406;28;20115;-75
2022/08/13 05:08:18;;;;;;;13.95;7.85;;;;;;;11.23;100.00;95473.53;5057668;28;20044;-75
2022/08/13 05:10:50;;;;;;;13.57;7.80;;;;;;;11.30;100.00;95472.44;5055283;28;20090;-75
2022/08/13 05:13:28;;;;;;;11.82;7.15;;;;;;;11.39;100.00;95470.78;5044766;28;20033;-75
2022/08/13 05:15:56;;;;;;;16.98;7.55;;;;;;;11.48;100.00;95473.63;5050161;28;20033;-75
2022/08/13 05:18:22;;;;;;;13.70;7.50;;;;;;;11.47;100.00;95467.56;5058152;28;20048;-75
2022/08/13 05:20:48;;;;;;;13.95;7.57;;;;;;;11.47;100.00;95472.84;5053613;28;20427;-75
2022/08/13 05:23:14;;;;;;;13.07;7.63;;;;;;;11.53;100.00;95474.38;5064188;28;20418;-75
2022/08/13 05:25:41;;;;;;;11.90;7.30;;;;;;;11.55;100.00;95476.72;5054138;28;20028;-75
2022/08/13 05:28:08;;;;;;;12.60;7.07;;;;;;;11.60;100.00;95466.94;5045945;28;20108;-76
2022/08/13 05:30:37;;;;;;;11.75;7.38;;;;;;;11.65;100.00;95474.03;5056080;28;20048;-76
2022/08/13 05:33:14;;;;;;;12.10;6.38;;;;;;;11.81;100.00;95472.03;5055452;28;20040;-75
2022/08/13 05:35:42;;;;;;;10.20;6.47;;;;;;;11.95;100.00;95475.63;5059746;28;20041;-76
2022/08/13 05:38:08;;;;;;;10.05;6.40;;;;;;;12.02;100.00;95471.88;5058974;28;20048;-76
2022/08/13 05:40:35;;;;;;;10.70;6.25;;;;;;;12.05;100.00;95466.03;5049497;28;20091;-76
2022/08/13 05:43:11;;;;;;;10.40;6.25;;;;;;;12.18;100.00;95470.63;5050947;28;20037;-75
2022/08/13 05:45:38;;;;;;;10.70;5.80;;;;;;;12.28;100.00;95469.75;5045900;28;20049;-75
2022/08/13 05:48:03;;;;;;;9.10;5.57;;;;;;;12.42;100.00;95469.88;5065146;28;20056;-75
2022/08/13 05:50:31;;;;;;;11.10;5.88;;;;;;;12.44;100.00;95478.28;5056714;28;22068;-75
2022/08/13 05:53:08;;;;;;;13.02;5.70;;;;;;;12.44;100.00;95479.09;5064075;28;20071;-75
2022/08/13 05:55:35;;;;;;;10.07;5.75;;;;;;;12.50;100.00;95474.53;5060400;28;20041;-75
2022/08/13 05:58:02;;;;;;;7.15;4.53;;;;;;;12.63;100.00;95476.47;5051934;28;20045;-75
2022/08/13 06:03:27;;;;;;;7.68;4.68;;;;;;;13.09;100.00;95472.44;5059056;28;20063;-75
2022/08/13 06:05:58;;;;;;;5.88;3.75;;;;;;;13.08;100.00;95470.09;5050261;28;20119;-75
2022/08/13 06:08:29;;;;;;;5.68;3.95;;;;;;;13.11;100.00;95470.31;5042543;28;20079;-75
2022/08/13 06:11:01;;;;;;;7.93;4.70;;;;;;;13.23;100.00;95467.25;5054148;28;20037;-75
2022/08/13 06:13:28;;;;;;;8.10;4.10;;;;;;;13.38;100.00;95468.13;5061691;28;20124;-75
2022/08/13 06:16:01;;;;;;;7.82;3.95;;;;;;;13.54;100.00;95472.09;5049272;28;20037;-76
2022/08/13 06:18:30;;;;;;;4.75;3.28;;;;;;;13.66;100.00;95475.06;5052056;28;20525;-76
2022/08/13 06:20:57;;;;;;;5.22;3.15;;;;;;;13.65;100.00;95473.50;5061376;28;20518;-76
2022/08/13 06:23:25;;;;;;;6.53;3.67;;;;;;;13.65;100.00;95478.00;5059754;28;20045;-76
2022/08/13 06:25:53;;;;;;;4.90;3.35;;;;;;;13.67;100.00;95486.41;5053630;28;20041;-76
2022/08/13 06:28:26;;;;;;;5.40;3.22;;;;;;;14.00;100.00;95479.25;5054393;28;20486;-76
2022/08/13 06:31:00;;;;;;;5.45;3.75;;;;;;;13.92;100.00;95472.00;5051213;28;20048;-75
2022/08/13 06:33:27;;;;;;;4.18;2.95;;;;;;;13.80;100.00;95469.03;5044908;28;20040;-74
2022/08/13 06:35:59;;;;;;;4.72;3.05;;;;;;;13.79;100.00;95462.97;5055064;28;20045;-80
2022/08/13 06:38:31;;;;;;;4.82;3.42;;;;;;;13.82;100.00;95472.16;5050741;28;20045;-76
2022/08/13 06:41:00;;;;;;;4.78;3.10;;;;;;;13.85;100.00;95472.38;5059474;28;20045;-76
2022/08/13 06:43:31;;;;;;;4.85;2.90;;;;;;;13.83;100.00;95473.72;5051485;28;20508;-75
2022/08/13 06:45:59;;;;;;;4.93;3.40;;;;;;;14.04;100.00;95474.94;5054323;28;20073;-77
2022/08/13 06:48:27;;;;;;;4.38;3.08;;;;;;;14.04;100.00;95474.94;5054435;28;20510;-77
2022/08/13 06:50:53;;;;;;;4.90;3.15;;;;;;;14.18;98.80;95480.25;5047899;28;20048;-77
2022/08/13 06:53:19;;;;;;;5.80;3.63;;;;;;;14.30;99.04;95487.72;5048957;28;20044;-77
2022/08/13 06:55:48;;;;;;;4.35;3.35;;;;;;;14.52;98.38;95475.66;5049121;28;20040;-77
2022/08/13 06:58:14;;;;;;;4.75;3.08;;;;;;;15.10;93.91;95471.59;5054148;28;20052;-77
2022/08/13 07:00:41;;;;;;;6.03;3.65;;;;;;;15.42;87.63;95473.25;5055431;28;20097;-77
2022/08/13 07:03:09;;;;;;;6.88;3.90;;;;;;;15.30;92.39;95478.31;5056604;28;20498;-86
2022/08/13 07:05:41;;;;;;;5.20;3.33;;;;;;;15.19;94.67;95480.38;5051051;28;20037;-82
2022/08/13 07:08:09;;;;;;;5.80;3.70;;;;;;;15.50;87.83;95479.72;5055291;28;20053;-78
2022/08/13 07:10:36;;;;;;;5.93;3.67;;;;;;;15.42;91.23;95483.84;5050813;28;20090;-77
2022/08/13 07:13:02;;;;;;;9.68;3.50;;;;;;;15.50;91.26;95478.91;5046000;28;20453;-78
2022/08/13 07:15:29;;;;;;;7.15;3.60;;;;;;;15.80;87.81;95479.28;5052019;28;20045;-78
2022/08/13 07:17:56;;;;;;;5.75;3.40;;;;;;;15.89;87.54;95474.84;5048966;28;20075;-77
2022/08/13 07:20:24;;;;;;;7.57;3.65;;;;;;;15.86;88.82;95470.13;5048742;28;20106;-77
2022/08/13 07:22:50;;;;;;;7.50;3.88;;;;;;;15.85;88.57;95484.50;5036395;28;20475;-77
2022/08/13 07:25:17;;;;;;;5.07;3.67;;;;;;;15.91;89.75;95483.25;5049025;28;20049;-78
2022/08/13 07:27:44;;;;;;;4.97;3.35;;;;;;;16.04;86.17;95471.00;5047168;28;20423;-77
2022/08/13 07:30:14;;;;;;;6.07;3.95;;;;;;;16.16;84.08;95467.78;5044899;28;20052;-77
2022/08/13 07:32:41;;;;;;;5.38;3.63;;;;;;;16.31;85.89;95475.34;5049001;28;20036;-77
2022/08/13 07:35:08;;;;;;;6.30;3.60;;;;;;;16.57;82.14;95466.69;5047534;28;20498;-77
2022/08/13 07:37:35;;;;;;;6.10;3.90;;;;;;;16.54;82.54;95467.31;5044821;28;20498;-77
2022/08/13 07:40:03;;;;;;;4.85;3.60;;;;;;;16.45;85.07;95465.38;5048352;28;20041;-78
2022/08/13 07:42:31;;;;;;;6.93;3.53;;;;;;;16.35;88.10;95470.19;5048465;28;20041;-77
2022/08/13 07:45:00;;;;;;;6.45;3.53;;;;;;;16.71;82.32;95472.66;5048596;28;20045;-77
2022/08/13 07:47:26;;;;;;;6.80;3.67;;;;;;;16.76;81.12;95475.16;5047424;28;20487;-77
2022/08/13 07:49:54;;;;;;;5.88;3.35;;;;;;;16.57;84.44;95478.09;5047007;28;20048;-76
2022/08/13 07:52:19;;;;;;;4.72;3.60;;;;;;;16.58;83.04;95478.88;5038812;28;20605;-76
2022/08/13 07:54:48;;;;;;;4.68;3.30;;;;;;;16.66;80.49;95470.13;5048887;28;20101;-77
2022/08/13 07:57:13;;;;;;;7.68;3.85;;;;;;;16.71;82.52;95477.19;5052200;28;20466;-77
2022/08/13 07:59:39;;;;;;;4.97;3.47;;;;;;;16.89;81.44;95476.16;5051046;28;20068;-77
2022/08/13 08:02:08;;;;;;;5.43;3.65;;;;;;;17.01;78.89;95475.56;5052419;28;20041;-77
2022/08/13 08:04:37;;;;;;;6.35;3.33;;;;;;;17.26;74.92;95470.56;5050911;28;20055;-77
2022/08/13 08:07:03;;;;;;;5.03;3.50;;;;;;;17.61;76.09;95470.53;5048781;28;20360;-76
2022/08/13 08:09:31;;;;;;;6.07;3.35;;;;;;;17.43;77.78;95478.53;5051173;28;20114;-76
2022/08/13 08:14:46;;;;;;;8.45;3.70;;;;;;;17.33;75.63;95473.53;5040792;28;20037;-77
2022/08/13 08:17:12;;;;;;;6.18;3.50;;;;;;;17.60;74.62;95474.31;5052194;28;20094;-76
2022/08/13 08:19:40;;;;;;;6.38;3.60;;;;;;;17.84;74.20;95461.28;5051964;28;20108;-77
2022/08/13 08:22:07;;;;;;;6.93;3.67;;;;;;;17.77;75.42;95470.81;5040767;28;20447;-77
2022/08/13 08:24:33;;;;;;;4.63;3.20;;;;;;;17.81;72.83;95469.91;5050995;28;20414;-77
2022/08/13 08:27:05;;;;;;;5.25;3.38;;;;;;;17.95;74.84;95474.28;5051090;28;20069;-77
2022/08/13 08:29:32;;;;;;;6.80;3.30;;;;;;;18.12;71.71;95474.22;5051840;28;20044;-77
2022/08/13 08:31:59;;;;;;;5.32;3.17;;;;;;;18.11;73.08;95467.31;5041724;28;20461;-77
2022/08/13 08:34:25;;;;;;;5.50;3.35;;;;;;;18.13;71.35;95465.13;5048542;28;20045;-76
2022/08/13 08:36:53;;;;;;;7.30;3.38;;;;;;;18.30;70.21;95468.81;5052325;28;20068;-77
2022/08/13 08:44:48;;;;;;;5.90;3.20;;;;;;;18.98;68.03;95465.38;5051785;28;20031;-77
2022/08/13 08:47:14;;;;;;;6.80;3.55;;;;;;;19.08;65.79;95465.00;5052215;28;20056;-77
2022/08/13 08:49:40;;;;;;;5.70;3.30;;;;;;;19.28;63.74;95468.78;5050448;28;20049;-77
2022/08/13 08:52:08;;;;;;;7.45;3.15;;;;;;;19.20;64.67;95467.72;5039832;28;20063;-77
2022/08/13 08:54:35;;;;;;;6.00;3.10;;;;;;;19.32;64.34;95474.22;5052014;28;20037;-77
2022/08/13 08:57:01;;;;;;;4.70;3.05;;;;;;;19.54;63.69;95465.88;5050763;28;20033;-76
2022/08/13 08:59:39;;;;;;;4.70;3.20;;;;;;;19.79;62.74;95465.97;5051751;28;20506;-76
2022/08/13 09:02:17;;;;;;;7.47;3.67;;;;;;;19.64;62.84;95462.03;5049586;28;20110;-77
2022/08/13 09:04:46;;;;;;;8.15;3.40;;;;;;;19.69;63.49;95461.81;5052280;28;20566;-77
2022/08/13 09:07:12;;;;;;;6.10;3.58;;;;;;;20.04;62.35;95466.03;5051514;28;20495;-77
2022/08/13 09:09:38;;;;;;;6.47;3.10;;;;;;;20.08;60.34;95466.94;5045202;28;20041;-76
2022/08/13 09:12:04;;;;;;;6.13;3.20;;;;;;;20.23;60.19;95474.31;5036159;28;20048;-76
2022/08/13 09:14:30;;;;;;;9.05;3.40;;;;;;;20.35;59.96;95470.09;5035894;28;20384;-76
2022/08/13 09:16:57;;;;;;;6.38;3.58;;;;;;;20.22;61.28;95462.06;5050991;28;20048;-78
2022/08/13 09:19:24;;;;;;;6.32;3.20;;;;;;;20.33;61.47;95467.78;5049377;28;20045;-77
2022/08/13 09:21:51;;;;;;;4.30;3.03;;;;;;;20.47;60.72;95462.06;5049885;28;20041;-77
2022/08/13 09:24:21;;;;;;;5.85;3.17;;;;;;;20.56;60.99;95465.44;5050757;28;20464;-77
2022/08/13 09:26:48;;;;;;;3.83;3.05;;;;;;;20.47;60.01;95456.72;5050943;28;20056;-77
2022/08/13 09:29:16;;;;;;;7.82;3.30;;;;;;;20.47;61.46;95464.75;5035798;28;20037;-77
2022/08/13 09:31:44;;;;;;;6.43;2.70;;;;;;;20.58;61.69;95468.53;5050767;28;20112;-77
2022/08/13 09:34:10;;;;;;;5.07;3.63;;;;;;;20.79;60.59;95461.53;5050891;28;20115;-77
2022/08/13 09:36:37;;;;;;;4.53;3.17;;;;;;;20.96;59.80;95460.53;5050665;28;20100;-76
2022/08/13 09:39:04;;;;;;;4.10;3.08;;;;;;;21.23;57.54;95464.38;5049023;28;20045;-77
2022/08/13 09:41:37;;;;;;;8.68;3.28;;;;;;;21.36;59.56;95462.44;5046516;28;20053;-77
2022/08/13 09:44:04;;;;;;;6.05;3.33;;;;;;;21.83;58.33;95464.50;5050682;28;20041;-77
2022/08/13 09:46:32;;;;;;;5.35;3.30;;;;;;;21.69;58.13;95464.88;5049710;28;20045;-77
2022/08/13 09:48:58;;;;;;;5.72;3.38;;;;;;;21.79;58.64;95467.09;5049831;28;20555;-77
2022/08/13 09:51:25;;;;;;;4.28;3.20;;;;;;;22.10;58.12;95462.13;5049820;28;20421;-77
2022/08/13 09:53:51;;;;;;;5.85;3.35;;;;;;;21.97;57.54;95459.50;5050414;28;20120;-76
2022/08/13 09:56:17;;;;;;;5.35;3.60;;;;;;;21.78;58.67;95451.38;5050368;28;20044;-77
2022/08/13 09:58:50;;;;;;;6.65;3.85;;;;;;;21.71;59.51;95456.53;5046720;28;20041;-76
2022/08/13 10:01:19;;;;;;;4.23;3.30;;;;;;;21.70;58.32;95465.69;5050540;28;20048;-77
2022/08/13 10:03:48;;;;;;;5.68;3.25;;;;;;;21.69;59.03;95464.88;5049629;28;20670;-77
2022/08/13 10:06:18;;;;;;;5.18;3.70;;;;;;;21.91;59.39;95458.22;5045016;28;20053;-77
2022/08/13 10:08:46;;;;;;;6.50;3.90;;;;;;;21.98;58.88;95466.44;5044349;28;20090;-77
2022/08/13 10:11:15;;;;;;;5.95;3.92;;;;;;;22.48;58.02;95463.44;5046803;28;20056;-77
2022/08/13 10:13:41;;;;;;;6.53;3.75;;;;;;;22.70;55.31;95466.63;5046082;28;20044;-77
2022/08/13 10:16:07;;;;;;;10.98;3.80;;;;;;;23.35;55.58;95466.13;5048602;28;20051;-77
2022/08/13 10:18:33;;;;;;;6.05;3.55;;;;;;;23.34;54.24;95461.88;5047750;28;20041;-77
2022/08/13 10:20:59;;;;;;;6.05;3.78;;;;;;;23.26;53.29;95460.97;5047941;28;20045;-76
2022/08/13 10:23:24;;;;;;;7.18;3.72;;;;;;;23.14;52.19;95458.41;5039458;28;20102;-77
2022/08/13 10:25:52;;;;;;;4.32;3.25;;;;;;;23.73;52.44;95447.66;5049545;28;20044;-77
2022/08/13 10:28:26;;;;;;;6.32;3.47;;;;;;;23.73;51.88;95455.72;5049812;28;20056;-77
2022/08/13 10:30:52;;;;;;;6.00;3.58;;;;;;;23.65;52.65;95460.19;5040287;28;20107;-77
2022/08/13 10:33:20;;;;;;;4.90;3.38;;;;;;;24.15;52.98;95454.94;5049635;28;20041;-76
2022/08/13 10:35:52;;;;;;;4.43;3.38;;;;;;;25.04;48.70;95438.63;5048304;28;20041;-77
2022/08/13 10:38:25;;;;;;;7.10;3.42;;;;;;;24.38;49.89;95426.16;5047076;28;20048;-77
2022/08/13 10:41:04;;;;;;;6.28;3.55;;;;;;;23.95;50.53;95433.53;5038888;28;20184;-76
2022/08/13 10:43:31;;;;;;;5.85;3.50;;;;;;;25.03;48.83;95437.88;5049387;28;20094;-77
2022/08/13 10:45:58;;;;;;;6.07;3.47;;;;;;;25.18;46.88;95432.66;5048293;28;20045;-77
2022/08/13 10:48:27;;;;;;;4.85;3.40;;;;;;;25.35;46.76;95426.75;5049183;28;20079;-77
2022/08/13 10:50:54;;;;;;;8.88;3.75;;;;;;;25.57;45.94;95425.06;5043646;28;20045;-77
2022/08/13 10:56:06;;;;;;;8.73;3.92;;;;;;;25.18;45.45;95427.28;5037815;28;20440;-77
2022/08/13 10:58:31;;;;;;;4.03;3.33;;;;;;;25.63;45.88;95414.75;5048951;28;20045;-78
2022/08/13 11:01:01;;;;;;;5.97;3.80;;;;;;;25.90;45.29;95425.38;5036160;28;20052;-77
2022/08/13 11:03:26;;;;;;;6.32;4.30;;;;;;;25.79;44.97;95411.03;5048109;28;20041;-77
2022/08/13 11:05:52;;;;;;;4.93;3.85;;;;;;;26.64;44.13;95415.63;5049399;28;20547;-77
2022/08/13 11:08:19;;;;;;;7.38;3.53;;;;;;;25.84;43.77;95413.41;5048404;28;20048;-78
2022/08/13 11:10:45;;;;;;;5.40;3.42;;;;;;;25.64;44.92;95421.66;5048634;28;20068;-78
2022/08/13 11:13:10;;;;;;;4.55;3.55;;;;;;;26.13;43.28;95416.38;5039824;28;20041;-77
2022/08/13 11:15:36;;;;;;;5.13;3.60;;;;;;;25.92;44.98;95420.41;5049764;28;20111;-78
2022/08/13 11:18:04;;;;;;;6.13;3.50;;;;;;;25.71;45.01;95416.34;5049323;28;20041;-77
2022/08/13 11:20:30;;;;;;;4.70;3.35;;;;;;;25.79;44.75;95411.03;5040318;28;20037;-77
2022/08/13 11:22:56;;;;;;;4.80;3.40;;;;;;;25.57;44.19;95426.97;5048852;28;20048;-77
2022/08/13 11:25:23;;;;;;;4.82;3.78;;;;;;;25.97;45.07;95417.38;5048744;28;20041;-76
2022/08/13 11:27:49;;;;;;;4.53;3.35;;;;;;;25.88;43.97;95419.59;5049133;28;20467;-77
2022/08/13 11:30:16;;;;;;;4.90;3.15;;;;;;;25.80;43.91;95410.66;5041122;28;20049;-77
2022/08/13 11:32:42;;;;;;;4.35;3.50;;;;;;;26.00;45.12;95415.84;5047686;28;20069;-77
2022/08/13 11:35:10;;;;;;;8.95;3.60;;;;;;;26.16;42.46;95418.34;5053080;28;20102;-77
2022/08/13 11:37:36;;;;;;;5.68;3.22;;;;;;;26.07;41.76;95411.31;5047730;28;20080;-78
2022/08/13 11:40:03;;;;;;;6.85;3.83;;;;;;;26.16;43.08;95421.03;5048730;28;20041;-77
2022/08/13 11:42:32;;;;;;;5.32;3.60;;;;;;;25.58;43.63;95423.16;5048790;28;20521;-77
2022/08/13 11:44:58;;;;;;;5.50;3.50;;;;;;;25.44;43.32;95418.38;5051444;28;20041;-77
2022/08/13 11:47:24;;;;;;;4.50;3.40;;;;;;;25.17;44.93;95414.94;5051659;28;20568;-77
2022/08/13 11:49:49;;;;;;;3.90;2.90;;;;;;;25.50;44.90;95416.13;5046810;28;20041;-77